sensor_id;sensor_type;location;lat;lon;timestamp;P1;durP1;ratioP1;P2;durP2;ratioP2
35506;SDS011;36461;52.018;21.036;2022-07-23T00:00:07;15.10;;;13.60;;
35506;SDS011;36461;52.018;21.036;2022-07-23T00:02:37;14.98;;;13.43;;
35506;SDS011;36461;52.018;21.036;2022-07-23T00:05:04;14.70;;;13.15;;
35506;SDS011;36461;52.018;21.036;2022-07-23T00:07:32;14.63;;;13.08;;
35506;SDS011;36461;52.018;21.036;2022-07-23T00:09:59;15.40;;;13.80;;
35506;SDS011;36461;52.018;21.036;2022-07-23T00:12:26;15.75;;;14.05;;
35506;SDS011;36461;52.018;21.036;2022-07-23T00:14:53;16.02;;;14.43;;
35506;SDS011;36461;52.018;21.036;2022-07-23T00:17:20;15.78;;;14.18;;
35506;SDS011;36461;52.018;21.036;2022-07-23T00:19:48;15.30;;;13.85;;
35506;SDS011;36461;52.018;21.036;2022-07-23T00:22:15;16.52;;;13.98;;
35506;SDS011;36461;52.018;21.036;2022-07-23T00:24:42;15.05;;;13.45;;
35506;SDS011;36461;52.018;21.036;2022-07-23T00:27:09;15.10;;;13.50;;
35506;SDS011;36461;52.018;21.036;2022-07-23T00:29:36;16.60;;;14.13;;
35506;SDS011;36461;52.018;21.036;2022-07-23T00:32:04;15.95;;;14.35;;
35506;SDS011;36461;52.018;21.036;2022-07-23T00:34:31;18.98;;;14.38;;
35506;SDS011;36461;52.018;21.036;2022-07-23T00:36:58;16.05;;;14.43;;
35506;SDS011;36461;52.018;21.036;2022-07-23T00:39:26;15.63;;;14.10;;
35506;SDS011;36461;52.018;21.036;2022-07-23T00:41:53;16.50;;;14.80;;
35506;SDS011;36461;52.018;21.036;2022-07-23T00:44:21;16.12;;;14.45;;
35506;SDS011;36461;52.018;21.036;2022-07-23T00:46:56;16.37;;;14.60;;
35506;SDS011;36461;52.018;21.036;2022-07-23T00:49:26;15.65;;;14.15;;
35506;SDS011;36461;52.018;21.036;2022-07-23T00:51:54;16.97;;;14.60;;
35506;SDS011;36461;52.018;21.036;2022-07-23T00:54:23;16.25;;;14.65;;
35506;SDS011;36461;52.018;21.036;2022-07-23T00:56:52;15.88;;;14.20;;
35506;SDS011;36461;52.018;21.036;2022-07-23T00:59:20;15.20;;;13.70;;
35506;SDS011;36461;52.018;21.036;2022-07-23T01:01:47;16.25;;;14.68;;
35506;SDS011;36461;52.018;21.036;2022-07-23T01:04:16;16.80;;;15.10;;
35506;SDS011;36461;52.018;21.036;2022-07-23T01:06:44;15.78;;;14.18;;
35506;SDS011;36461;52.018;21.036;2022-07-23T01:09:12;18.52;;;14.18;;
35506;SDS011;36461;52.018;21.036;2022-07-23T01:11:39;18.25;;;14.83;;
35506;SDS011;36461;52.018;21.036;2022-07-23T01:14:13;15.85;;;14.20;;
35506;SDS011;36461;52.018;21.036;2022-07-23T01:16:42;15.72;;;14.13;;
35506;SDS011;36461;52.018;21.036;2022-07-23T01:19:11;16.32;;;14.63;;
35506;SDS011;36461;52.018;21.036;2022-07-23T01:21:48;16.15;;;14.65;;
35506;SDS011;36461;52.018;21.036;2022-07-23T01:24:17;16.23;;;14.43;;
35506;SDS011;36461;52.018;21.036;2022-07-23T01:26:49;16.25;;;14.55;;
35506;SDS011;36461;52.018;21.036;2022-07-23T01:29:17;15.95;;;14.23;;
35506;SDS011;36461;52.018;21.036;2022-07-23T01:31:46;15.85;;;14.35;;
35506;SDS011;36461;52.018;21.036;2022-07-23T01:34:15;15.60;;;14.00;;
35506;SDS011;36461;52.018;21.036;2022-07-23T01:36:42;15.58;;;14.07;;
35506;SDS011;36461;52.018;21.036;2022-07-23T01:39:11;15.98;;;14.30;;
35506;SDS011;36461;52.018;21.036;2022-07-23T01:41:38;14.83;;;13.38;;
35506;SDS011;36461;52.018;21.036;2022-07-23T01:44:05;15.08;;;13.55;;
35506;SDS011;36461;52.018;21.036;2022-07-23T01:46:33;15.78;;;14.07;;
35506;SDS011;36461;52.018;21.036;2022-07-23T01:49:00;15.20;;;13.75;;
35506;SDS011;36461;52.018;21.036;2022-07-23T01:51:38;14.53;;;13.08;;
35506;SDS011;36461;52.018;21.036;2022-07-23T01:54:09;17.05;;;13.48;;
35506;SDS011;36461;52.018;21.036;2022-07-23T01:56:36;17.12;;;13.95;;
35506;SDS011;36461;52.018;21.036;2022-07-23T01:59:03;16.37;;;13.80;;
35506;SDS011;36461;52.018;21.036;2022-07-23T02:01:31;15.70;;;14.15;;
35506;SDS011;36461;52.018;21.036;2022-07-23T02:03:58;15.75;;;13.98;;
35506;SDS011;36461;52.018;21.036;2022-07-23T02:06:25;16.37;;;14.65;;
35506;SDS011;36461;52.018;21.036;2022-07-23T02:08:52;15.43;;;13.93;;
35506;SDS011;36461;52.018;21.036;2022-07-23T02:11:21;15.55;;;13.95;;
35506;SDS011;36461;52.018;21.036;2022-07-23T02:13:48;16.00;;;14.03;;
35506;SDS011;36461;52.018;21.036;2022-07-23T02:16:15;16.35;;;14.73;;
35506;SDS011;36461;52.018;21.036;2022-07-23T02:18:44;15.78;;;14.15;;
35506;SDS011;36461;52.018;21.036;2022-07-23T02:21:12;15.60;;;14.15;;
35506;SDS011;36461;52.018;21.036;2022-07-23T02:23:40;16.02;;;14.40;;
35506;SDS011;36461;52.018;21.036;2022-07-23T02:26:07;15.98;;;14.23;;
35506;SDS011;36461;52.018;21.036;2022-07-23T02:28:34;15.43;;;13.93;;
35506;SDS011;36461;52.018;21.036;2022-07-23T02:31:01;16.73;;;13.93;;
35506;SDS011;36461;52.018;21.036;2022-07-23T02:33:29;15.43;;;13.83;;
35506;SDS011;36461;52.018;21.036;2022-07-23T02:35:56;15.60;;;13.62;;
35506;SDS011;36461;52.018;21.036;2022-07-23T02:38:23;15.68;;;14.07;;
35506;SDS011;36461;52.018;21.036;2022-07-23T02:40:50;14.83;;;13.43;;
35506;SDS011;36461;52.018;21.036;2022-07-23T02:43:18;16.00;;;14.30;;
35506;SDS011;36461;52.018;21.036;2022-07-23T02:45:45;14.93;;;13.43;;
35506;SDS011;36461;52.018;21.036;2022-07-23T02:48:12;15.10;;;13.70;;
35506;SDS011;36461;52.018;21.036;2022-07-23T02:50:42;15.53;;;13.75;;
35506;SDS011;36461;52.018;21.036;2022-07-23T02:53:09;15.40;;;13.80;;
35506;SDS011;36461;52.018;21.036;2022-07-23T02:55:36;15.28;;;13.68;;
35506;SDS011;36461;52.018;21.036;2022-07-23T02:58:04;14.13;;;12.82;;
35506;SDS011;36461;52.018;21.036;2022-07-23T03:00:31;15.08;;;13.50;;
35506;SDS011;36461;52.018;21.036;2022-07-23T03:02:58;14.50;;;13.13;;
35506;SDS011;36461;52.018;21.036;2022-07-23T03:05:26;14.68;;;13.18;;
35506;SDS011;36461;52.018;21.036;2022-07-23T03:07:53;15.28;;;13.68;;
35506;SDS011;36461;52.018;21.036;2022-07-23T03:10:20;15.10;;;13.70;;
35506;SDS011;36461;52.018;21.036;2022-07-23T03:12:47;14.30;;;13.00;;
35506;SDS011;36461;52.018;21.036;2022-07-23T03:15:14;14.58;;;13.05;;
35506;SDS011;36461;52.018;21.036;2022-07-23T03:17:42;15.40;;;13.83;;
35506;SDS011;36461;52.018;21.036;2022-07-23T03:20:09;14.45;;;13.03;;
35506;SDS011;36461;52.018;21.036;2022-07-23T03:22:38;14.10;;;12.70;;
35506;SDS011;36461;52.018;21.036;2022-07-23T03:25:06;14.55;;;13.25;;
35506;SDS011;36461;52.018;21.036;2022-07-23T03:27:35;14.68;;;13.18;;
35506;SDS011;36461;52.018;21.036;2022-07-23T03:30:03;14.33;;;12.58;;
35506;SDS011;36461;52.018;21.036;2022-07-23T03:32:31;14.80;;;13.20;;
35506;SDS011;36461;52.018;21.036;2022-07-23T03:34:58;14.35;;;12.95;;
35506;SDS011;36461;52.018;21.036;2022-07-23T03:37:26;14.63;;;13.10;;
35506;SDS011;36461;52.018;21.036;2022-07-23T03:39:53;16.67;;;13.18;;
35506;SDS011;36461;52.018;21.036;2022-07-23T03:42:20;14.15;;;12.68;;
35506;SDS011;36461;52.018;21.036;2022-07-23T03:44:47;14.43;;;13.00;;
35506;SDS011;36461;52.018;21.036;2022-07-23T03:47:14;14.05;;;12.65;;
35506;SDS011;36461;52.018;21.036;2022-07-23T03:49:44;14.13;;;12.73;;
35506;SDS011;36461;52.018;21.036;2022-07-23T03:52:11;14.47;;;12.98;;
35506;SDS011;36461;52.018;21.036;2022-07-23T03:54:38;14.40;;;12.65;;
35506;SDS011;36461;52.018;21.036;2022-07-23T03:57:05;16.10;;;12.78;;
35506;SDS011;36461;52.018;21.036;2022-07-23T03:59:32;15.93;;;13.28;;
35506;SDS011;36461;52.018;21.036;2022-07-23T04:02:00;14.73;;;12.13;;
35506;SDS011;36461;52.018;21.036;2022-07-23T04:04:27;13.55;;;12.20;;
35506;SDS011;36461;52.018;21.036;2022-07-23T04:06:54;14.23;;;12.73;;
35506;SDS011;36461;52.018;21.036;2022-07-23T04:09:21;12.68;;;11.38;;
35506;SDS011;36461;52.018;21.036;2022-07-23T04:11:49;13.40;;;12.00;;
35506;SDS011;36461;52.018;21.036;2022-07-23T04:14:16;14.18;;;12.20;;
35506;SDS011;36461;52.018;21.036;2022-07-23T04:16:44;13.90;;;11.33;;
35506;SDS011;36461;52.018;21.036;2022-07-23T04:19:11;14.00;;;12.50;;
35506;SDS011;36461;52.018;21.036;2022-07-23T04:21:40;13.72;;;12.33;;
35506;SDS011;36461;52.018;21.036;2022-07-23T04:24:08;14.60;;;12.55;;
35506;SDS011;36461;52.018;21.036;2022-07-23T04:26:36;14.95;;;12.80;;
35506;SDS011;36461;52.018;21.036;2022-07-23T04:29:03;13.70;;;12.30;;
35506;SDS011;36461;52.018;21.036;2022-07-23T04:31:31;16.93;;;12.55;;
35506;SDS011;36461;52.018;21.036;2022-07-23T04:33:58;12.85;;;11.48;;
35506;SDS011;36461;52.018;21.036;2022-07-23T04:36:26;12.68;;;11.53;;
35506;SDS011;36461;52.018;21.036;2022-07-23T04:38:54;14.55;;;13.00;;
35506;SDS011;36461;52.018;21.036;2022-07-23T04:41:21;17.65;;;12.95;;
35506;SDS011;36461;52.018;21.036;2022-07-23T04:43:49;13.60;;;12.05;;
35506;SDS011;36461;52.018;21.036;2022-07-23T04:46:16;13.62;;;12.23;;
35506;SDS011;36461;52.018;21.036;2022-07-23T04:48:45;13.30;;;11.90;;
35506;SDS011;36461;52.018;21.036;2022-07-23T04:51:12;14.55;;;13.05;;
35506;SDS011;36461;52.018;21.036;2022-07-23T04:53:40;12.88;;;11.60;;
35506;SDS011;36461;52.018;21.036;2022-07-23T04:56:07;14.18;;;11.40;;
35506;SDS011;36461;52.018;21.036;2022-07-23T04:58:34;13.68;;;12.15;;
35506;SDS011;36461;52.018;21.036;2022-07-23T05:01:03;13.50;;;12.07;;
35506;SDS011;36461;52.018;21.036;2022-07-23T05:03:31;14.58;;;12.73;;
35506;SDS011;36461;52.018;21.036;2022-07-23T05:05:58;13.32;;;11.93;;
35506;SDS011;36461;52.018;21.036;2022-07-23T05:08:25;13.15;;;11.85;;
35506;SDS011;36461;52.018;21.036;2022-07-23T05:10:54;15.68;;;12.05;;
35506;SDS011;36461;52.018;21.036;2022-07-23T05:13:21;13.98;;;12.18;;
35506;SDS011;36461;52.018;21.036;2022-07-23T05:15:51;14.80;;;12.07;;
35506;SDS011;36461;52.018;21.036;2022-07-23T05:18:18;13.55;;;12.07;;
35506;SDS011;36461;52.018;21.036;2022-07-23T05:20:45;13.58;;;12.18;;
35506;SDS011;36461;52.018;21.036;2022-07-23T05:23:15;12.93;;;11.70;;
35506;SDS011;36461;52.018;21.036;2022-07-23T05:25:42;13.65;;;11.80;;
35506;SDS011;36461;52.018;21.036;2022-07-23T05:28:09;13.20;;;11.90;;
35506;SDS011;36461;52.018;21.036;2022-07-23T05:30:37;15.98;;;11.95;;
35506;SDS011;36461;52.018;21.036;2022-07-23T05:33:05;13.18;;;11.60;;
35506;SDS011;36461;52.018;21.036;2022-07-23T05:35:34;13.35;;;11.80;;
35506;SDS011;36461;52.018;21.036;2022-07-23T05:38:03;11.97;;;10.80;;
35506;SDS011;36461;52.018;21.036;2022-07-23T05:40:31;13.08;;;11.57;;
35506;SDS011;36461;52.018;21.036;2022-07-23T05:42:59;13.48;;;11.40;;
35506;SDS011;36461;52.018;21.036;2022-07-23T05:45:26;12.43;;;11.12;;
35506;SDS011;36461;52.018;21.036;2022-07-23T05:47:53;12.55;;;10.82;;
35506;SDS011;36461;52.018;21.036;2022-07-23T05:50:29;12.58;;;10.65;;
35506;SDS011;36461;52.018;21.036;2022-07-23T05:52:58;14.68;;;11.57;;
35506;SDS011;36461;52.018;21.036;2022-07-23T05:55:30;11.33;;;10.20;;
35506;SDS011;36461;52.018;21.036;2022-07-23T05:57:58;13.93;;;10.68;;
35506;SDS011;36461;52.018;21.036;2022-07-23T06:00:26;11.70;;;10.32;;
35506;SDS011;36461;52.018;21.036;2022-07-23T06:02:56;11.18;;;10.15;;
35506;SDS011;36461;52.018;21.036;2022-07-23T06:05:23;13.30;;;10.65;;
35506;SDS011;36461;52.018;21.036;2022-07-23T06:07:52;11.97;;;10.48;;
35506;SDS011;36461;52.018;21.036;2022-07-23T06:10:21;12.58;;;11.00;;
35506;SDS011;36461;52.018;21.036;2022-07-23T06:12:49;12.98;;;11.55;;
35506;SDS011;36461;52.018;21.036;2022-07-23T06:15:16;12.90;;;11.15;;
35506;SDS011;36461;52.018;21.036;2022-07-23T06:17:43;11.93;;;10.68;;
35506;SDS011;36461;52.018;21.036;2022-07-23T06:20:10;11.83;;;10.65;;
35506;SDS011;36461;52.018;21.036;2022-07-23T06:22:39;13.10;;;11.10;;
35506;SDS011;36461;52.018;21.036;2022-07-23T06:25:06;12.95;;;11.30;;
35506;SDS011;36461;52.018;21.036;2022-07-23T06:27:34;13.50;;;11.30;;
35506;SDS011;36461;52.018;21.036;2022-07-23T06:30:01;13.43;;;10.30;;
35506;SDS011;36461;52.018;21.036;2022-07-23T06:32:29;12.30;;;9.73;;
35506;SDS011;36461;52.018;21.036;2022-07-23T06:34:56;12.07;;;10.20;;
35506;SDS011;36461;52.018;21.036;2022-07-23T06:37:23;11.83;;;10.35;;
35506;SDS011;36461;52.018;21.036;2022-07-23T06:39:50;10.72;;;9.70;;
35506;SDS011;36461;52.018;21.036;2022-07-23T06:42:18;12.40;;;10.43;;
35506;SDS011;36461;52.018;21.036;2022-07-23T06:44:45;11.05;;;9.93;;
35506;SDS011;36461;52.018;21.036;2022-07-23T06:47:14;10.75;;;9.53;;
35506;SDS011;36461;52.018;21.036;2022-07-23T06:49:41;10.08;;;9.03;;
35506;SDS011;36461;52.018;21.036;2022-07-23T06:52:08;10.03;;;9.13;;
35506;SDS011;36461;52.018;21.036;2022-07-23T06:54:35;10.70;;;9.60;;
35506;SDS011;36461;52.018;21.036;2022-07-23T06:57:02;10.65;;;9.35;;
35506;SDS011;36461;52.018;21.036;2022-07-23T06:59:30;10.58;;;9.48;;
35506;SDS011;36461;52.018;21.036;2022-07-23T07:01:57;12.65;;;9.80;;
35506;SDS011;36461;52.018;21.036;2022-07-23T07:04:25;11.00;;;9.90;;
35506;SDS011;36461;52.018;21.036;2022-07-23T07:06:52;10.85;;;8.60;;
35506;SDS011;36461;52.018;21.036;2022-07-23T07:09:19;10.65;;;7.67;;
35506;SDS011;36461;52.018;21.036;2022-07-23T07:11:46;13.58;;;8.55;;
35506;SDS011;36461;52.018;21.036;2022-07-23T07:14:13;9.40;;;8.38;;
35506;SDS011;36461;52.018;21.036;2022-07-23T07:16:40;9.60;;;8.15;;
35506;SDS011;36461;52.018;21.036;2022-07-23T07:19:07;10.13;;;8.68;;
35506;SDS011;36461;52.018;21.036;2022-07-23T07:21:35;9.35;;;8.40;;
35506;SDS011;36461;52.018;21.036;2022-07-23T07:24:02;9.50;;;8.60;;
35506;SDS011;36461;52.018;21.036;2022-07-23T07:26:31;11.63;;;8.70;;
35506;SDS011;36461;52.018;21.036;2022-07-23T07:28:58;11.25;;;8.05;;
35506;SDS011;36461;52.018;21.036;2022-07-23T07:31:25;8.73;;;7.85;;
35506;SDS011;36461;52.018;21.036;2022-07-23T07:33:52;9.85;;;8.05;;
35506;SDS011;36461;52.018;21.036;2022-07-23T07:36:19;9.38;;;7.87;;
35506;SDS011;36461;52.018;21.036;2022-07-23T07:38:47;8.60;;;7.80;;
35506;SDS011;36461;52.018;21.036;2022-07-23T07:41:14;9.53;;;7.85;;
35506;SDS011;36461;52.018;21.036;2022-07-23T07:43:41;9.05;;;8.15;;
35506;SDS011;36461;52.018;21.036;2022-07-23T07:46:08;8.98;;;8.08;;
35506;SDS011;36461;52.018;21.036;2022-07-23T07:48:37;11.60;;;9.03;;
35506;SDS011;36461;52.018;21.036;2022-07-23T07:51:04;9.63;;;7.90;;
35506;SDS011;36461;52.018;21.036;2022-07-23T07:53:32;10.50;;;8.13;;
35506;SDS011;36461;52.018;21.036;2022-07-23T07:56:00;10.53;;;7.55;;
35506;SDS011;36461;52.018;21.036;2022-07-23T07:58:27;8.80;;;7.92;;
35506;SDS011;36461;52.018;21.036;2022-07-23T08:00:54;10.98;;;8.63;;
35506;SDS011;36461;52.018;21.036;2022-07-23T08:03:21;9.15;;;8.33;;
35506;SDS011;36461;52.018;21.036;2022-07-23T08:05:48;8.53;;;7.75;;
35506;SDS011;36461;52.018;21.036;2022-07-23T08:08:15;8.80;;;7.83;;
35506;SDS011;36461;52.018;21.036;2022-07-23T08:10:42;8.43;;;7.47;;
35506;SDS011;36461;52.018;21.036;2022-07-23T08:13:12;7.70;;;7.10;;
35506;SDS011;36461;52.018;21.036;2022-07-23T08:15:42;8.30;;;7.50;;
35506;SDS011;36461;52.018;21.036;2022-07-23T08:18:10;9.75;;;7.22;;
35506;SDS011;36461;52.018;21.036;2022-07-23T08:20:38;8.15;;;7.35;;
35506;SDS011;36461;52.018;21.036;2022-07-23T08:23:06;7.40;;;6.70;;
35506;SDS011;36461;52.018;21.036;2022-07-23T08:25:35;7.62;;;6.75;;
35506;SDS011;36461;52.018;21.036;2022-07-23T08:28:06;6.95;;;6.28;;
35506;SDS011;36461;52.018;21.036;2022-07-23T08:30:35;7.55;;;6.85;;
35506;SDS011;36461;52.018;21.036;2022-07-23T08:35:36;7.85;;;7.00;;
35506;SDS011;36461;52.018;21.036;2022-07-23T08:38:05;8.75;;;6.87;;
35506;SDS011;36461;52.018;21.036;2022-07-23T08:40:36;7.92;;;6.58;;
35506;SDS011;36461;52.018;21.036;2022-07-23T08:43:08;8.23;;;6.78;;
35506;SDS011;36461;52.018;21.036;2022-07-23T08:45:37;6.70;;;6.03;;
35506;SDS011;36461;52.018;21.036;2022-07-23T08:48:08;7.72;;;6.45;;
35506;SDS011;36461;52.018;21.036;2022-07-23T08:50:37;7.55;;;5.85;;
35506;SDS011;36461;52.018;21.036;2022-07-23T08:53:09;8.58;;;6.70;;
35506;SDS011;36461;52.018;21.036;2022-07-23T08:55:37;9.53;;;6.50;;
35506;SDS011;36461;52.018;21.036;2022-07-23T08:58:04;7.12;;;6.42;;
35506;SDS011;36461;52.018;21.036;2022-07-23T09:00:32;7.78;;;6.70;;
35506;SDS011;36461;52.018;21.036;2022-07-23T09:02:59;7.60;;;6.62;;
35506;SDS011;36461;52.018;21.036;2022-07-23T09:05:27;7.65;;;6.47;;
35506;SDS011;36461;52.018;21.036;2022-07-23T09:08:13;7.17;;;6.47;;
35506;SDS011;36461;52.018;21.036;2022-07-23T09:16:13;7.00;;;6.30;;
35506;SDS011;36461;52.018;21.036;2022-07-23T09:21:16;7.58;;;6.28;;
35506;SDS011;36461;52.018;21.036;2022-07-23T09:23:49;9.25;;;7.05;;
35506;SDS011;36461;52.018;21.036;2022-07-23T09:26:30;7.97;;;6.55;;
35506;SDS011;36461;52.018;21.036;2022-07-23T09:29:10;7.58;;;6.85;;
35506;SDS011;36461;52.018;21.036;2022-07-23T09:34:23;6.92;;;6.22;;
35506;SDS011;36461;52.018;21.036;2022-07-23T09:36:53;7.37;;;6.67;;
35506;SDS011;36461;52.018;21.036;2022-07-23T09:39:25;7.05;;;6.35;;
35506;SDS011;36461;52.018;21.036;2022-07-23T09:41:54;7.28;;;6.58;;
35506;SDS011;36461;52.018;21.036;2022-07-23T09:44:22;6.97;;;6.37;;
35506;SDS011;36461;52.018;21.036;2022-07-23T09:46:50;7.85;;;7.05;;
35506;SDS011;36461;52.018;21.036;2022-07-23T09:49:20;6.60;;;6.00;;
35506;SDS011;36461;52.018;21.036;2022-07-23T09:51:54;7.45;;;6.47;;
35506;SDS011;36461;52.018;21.036;2022-07-23T09:54:25;6.60;;;6.00;;
35506;SDS011;36461;52.018;21.036;2022-07-23T09:56:55;6.97;;;6.28;;
35506;SDS011;36461;52.018;21.036;2022-07-23T09:59:28;6.67;;;6.08;;
35506;SDS011;36461;52.018;21.036;2022-07-23T10:01:58;8.28;;;6.55;;
35506;SDS011;36461;52.018;21.036;2022-07-23T10:04:27;8.15;;;6.20;;
35506;SDS011;36461;52.018;21.036;2022-07-23T10:06:58;8.85;;;6.80;;
35506;SDS011;36461;52.018;21.036;2022-07-23T10:09:46;6.75;;;6.15;;
35506;SDS011;36461;52.018;21.036;2022-07-23T10:12:28;6.58;;;5.97;;
35506;SDS011;36461;52.018;21.036;2022-07-23T10:15:10;7.80;;;6.22;;
35506;SDS011;36461;52.018;21.036;2022-07-23T10:17:38;6.65;;;6.05;;
35506;SDS011;36461;52.018;21.036;2022-07-23T10:20:05;8.95;;;5.87;;
35506;SDS011;36461;52.018;21.036;2022-07-23T10:22:38;6.75;;;6.00;;
35506;SDS011;36461;52.018;21.036;2022-07-23T10:36:04;6.65;;;5.95;;
35506;SDS011;36461;52.018;21.036;2022-07-23T10:41:35;6.53;;;5.92;;
35506;SDS011;36461;52.018;21.036;2022-07-23T10:44:10;6.33;;;5.50;;
35506;SDS011;36461;52.018;21.036;2022-07-23T10:46:46;7.85;;;7.05;;
35506;SDS011;36461;52.018;21.036;2022-07-23T10:49:33;6.87;;;6.20;;
35506;SDS011;36461;52.018;21.036;2022-07-23T10:57:25;7.15;;;6.45;;
35506;SDS011;36461;52.018;21.036;2022-07-23T11:02:39;7.10;;;6.40;;
35506;SDS011;36461;52.018;21.036;2022-07-23T11:05:08;7.05;;;6.35;;
35506;SDS011;36461;52.018;21.036;2022-07-23T11:08:09;7.47;;;6.42;;
35506;SDS011;36461;52.018;21.036;2022-07-23T11:10:34;10.70;;;6.83;;
35506;SDS011;36461;52.018;21.036;2022-07-23T11:13:51;7.45;;;5.70;;
35506;SDS011;36461;52.018;21.036;2022-07-23T11:32:04;6.28;;;5.72;;
35506;SDS011;36461;52.018;21.036;2022-07-23T11:34:43;8.53;;;6.33;;
35506;SDS011;36461;52.018;21.036;2022-07-23T11:37:28;8.35;;;6.17;;
35506;SDS011;36461;52.018;21.036;2022-07-23T11:39:57;7.08;;;6.47;;
35506;SDS011;36461;52.018;21.036;2022-07-23T11:42:25;7.00;;;6.40;;
35506;SDS011;36461;52.018;21.036;2022-07-23T11:44:52;6.72;;;6.12;;
35506;SDS011;36461;52.018;21.036;2022-07-23T11:47:23;8.60;;;7.03;;
35506;SDS011;36461;52.018;21.036;2022-07-23T11:49:52;6.95;;;6.25;;
35506;SDS011;36461;52.018;21.036;2022-07-23T11:52:21;7.45;;;6.75;;
35506;SDS011;36461;52.018;21.036;2022-07-23T11:54:58;7.28;;;6.50;;
35506;SDS011;36461;52.018;21.036;2022-07-23T11:57:34;7.28;;;6.58;;
35506;SDS011;36461;52.018;21.036;2022-07-23T12:02:48;7.30;;;6.60;;
35506;SDS011;36461;52.018;21.036;2022-07-23T12:07:52;7.53;;;6.80;;
35506;SDS011;36461;52.018;21.036;2022-07-23T12:10:21;7.25;;;6.53;;
35506;SDS011;36461;52.018;21.036;2022-07-23T12:12:54;7.62;;;6.92;;
35506;SDS011;36461;52.018;21.036;2022-07-23T12:15:23;8.20;;;6.67;;
35506;SDS011;36461;52.018;21.036;2022-07-23T12:17:52;7.05;;;6.37;;
35506;SDS011;36461;52.018;21.036;2022-07-23T12:20:22;6.92;;;6.28;;
35506;SDS011;36461;52.018;21.036;2022-07-23T12:22:53;7.17;;;6.47;;
35506;SDS011;36461;52.018;21.036;2022-07-23T12:25:31;9.10;;;6.80;;
35506;SDS011;36461;52.018;21.036;2022-07-23T12:28:05;7.30;;;6.60;;
35506;SDS011;36461;52.018;21.036;2022-07-23T12:30:45;7.97;;;6.92;;
35506;SDS011;36461;52.018;21.036;2022-07-23T12:33:35;7.62;;;6.92;;
35506;SDS011;36461;52.018;21.036;2022-07-23T12:36:01;7.15;;;6.45;;
35506;SDS011;36461;52.018;21.036;2022-07-23T12:38:49;6.55;;;5.85;;
35506;SDS011;36461;52.018;21.036;2022-07-23T12:41:16;7.15;;;6.45;;
35506;SDS011;36461;52.018;21.036;2022-07-23T12:43:44;8.93;;;6.85;;
35506;SDS011;36461;52.018;21.036;2022-07-23T12:46:13;7.45;;;6.75;;
35506;SDS011;36461;52.018;21.036;2022-07-23T12:51:21;8.33;;;7.10;;
35506;SDS011;36461;52.018;21.036;2022-07-23T12:53:54;8.05;;;6.80;;
35506;SDS011;36461;52.018;21.036;2022-07-23T12:56:36;7.15;;;6.42;;
35506;SDS011;36461;52.018;21.036;2022-07-23T12:59:09;7.83;;;6.25;;
35506;SDS011;36461;52.018;21.036;2022-07-23T13:01:43;7.62;;;6.85;;
35506;SDS011;36461;52.018;21.036;2022-07-23T13:04:15;6.95;;;6.03;;
35506;SDS011;36461;52.018;21.036;2022-07-23T13:06:48;6.87;;;6.28;;
35506;SDS011;36461;52.018;21.036;2022-07-23T13:09:22;6.95;;;6.35;;
35506;SDS011;36461;52.018;21.036;2022-07-23T13:11:52;6.58;;;5.78;;
35506;SDS011;36461;52.018;21.036;2022-07-23T13:14:21;8.13;;;6.75;;
35506;SDS011;36461;52.018;21.036;2022-07-23T13:16:49;6.78;;;6.17;;
35506;SDS011;36461;52.018;21.036;2022-07-23T13:19:18;6.80;;;6.20;;
35506;SDS011;36461;52.018;21.036;2022-07-23T13:21:45;7.08;;;6.20;;
35506;SDS011;36461;52.018;21.036;2022-07-23T13:24:14;7.22;;;6.53;;
35506;SDS011;36461;52.018;21.036;2022-07-23T13:26:42;6.97;;;6.28;;
35506;SDS011;36461;52.018;21.036;2022-07-23T13:29:10;7.35;;;6.65;;
35506;SDS011;36461;52.018;21.036;2022-07-23T13:31:37;6.53;;;5.92;;
35506;SDS011;36461;52.018;21.036;2022-07-23T13:34:05;7.15;;;6.45;;
35506;SDS011;36461;52.018;21.036;2022-07-23T13:36:33;7.47;;;6.40;;
35506;SDS011;36461;52.018;21.036;2022-07-23T13:39:03;7.12;;;6.40;;
35506;SDS011;36461;52.018;21.036;2022-07-23T13:41:31;7.25;;;6.55;;
35506;SDS011;36461;52.018;21.036;2022-07-23T13:43:58;7.37;;;6.47;;
35506;SDS011;36461;52.018;21.036;2022-07-23T13:46:26;7.55;;;6.80;;
35506;SDS011;36461;52.018;21.036;2022-07-23T13:48:53;7.40;;;6.70;;
35506;SDS011;36461;52.018;21.036;2022-07-23T13:51:20;7.65;;;6.25;;
35506;SDS011;36461;52.018;21.036;2022-07-23T13:53:48;7.10;;;6.50;;
35506;SDS011;36461;52.018;21.036;2022-07-23T13:56:15;9.28;;;7.22;;
35506;SDS011;36461;52.018;21.036;2022-07-23T13:58:42;8.03;;;7.12;;
35506;SDS011;36461;52.018;21.036;2022-07-23T14:01:09;6.70;;;6.10;;
35506;SDS011;36461;52.018;21.036;2022-07-23T14:03:36;7.62;;;6.92;;
35506;SDS011;36461;52.018;21.036;2022-07-23T14:06:04;8.28;;;7.50;;
35506;SDS011;36461;52.018;21.036;2022-07-23T14:08:32;6.97;;;6.35;;
35506;SDS011;36461;52.018;21.036;2022-07-23T14:11:00;6.97;;;6.28;;
35506;SDS011;36461;52.018;21.036;2022-07-23T14:13:27;6.78;;;6.08;;
35506;SDS011;36461;52.018;21.036;2022-07-23T14:15:53;6.85;;;6.25;;
35506;SDS011;36461;52.018;21.036;2022-07-23T14:18:21;7.67;;;6.90;;
35506;SDS011;36461;52.018;21.036;2022-07-23T14:20:48;7.20;;;6.45;;
35506;SDS011;36461;52.018;21.036;2022-07-23T14:23:15;7.33;;;6.70;;
35506;SDS011;36461;52.018;21.036;2022-07-23T14:25:42;7.40;;;6.67;;
35506;SDS011;36461;52.018;21.036;2022-07-23T14:28:09;7.30;;;6.70;;
35506;SDS011;36461;52.018;21.036;2022-07-23T14:30:38;7.30;;;6.58;;
35506;SDS011;36461;52.018;21.036;2022-07-23T14:33:05;7.03;;;6.40;;
35506;SDS011;36461;52.018;21.036;2022-07-23T14:35:32;7.08;;;6.37;;
35506;SDS011;36461;52.018;21.036;2022-07-23T14:37:59;7.03;;;6.42;;
35506;SDS011;36461;52.018;21.036;2022-07-23T14:40:26;7.15;;;6.50;;
35506;SDS011;36461;52.018;21.036;2022-07-23T14:42:53;6.97;;;6.37;;
35506;SDS011;36461;52.018;21.036;2022-07-23T14:45:20;17.20;;;14.98;;
35506;SDS011;36461;52.018;21.036;2022-07-23T14:47:47;16.97;;;6.62;;
35506;SDS011;36461;52.018;21.036;2022-07-23T14:50:14;13.00;;;4.70;;
35506;SDS011;36461;52.018;21.036;2022-07-23T14:52:41;10.85;;;4.45;;
35506;SDS011;36461;52.018;21.036;2022-07-23T14:55:09;11.97;;;4.37;;
35506;SDS011;36461;52.018;21.036;2022-07-23T14:57:36;17.02;;;4.20;;
35506;SDS011;36461;52.018;21.036;2022-07-23T15:00:04;11.43;;;4.20;;
35506;SDS011;36461;52.018;21.036;2022-07-23T15:02:33;8.03;;;4.08;;
35506;SDS011;36461;52.018;21.036;2022-07-23T15:05:00;9.60;;;4.25;;
35506;SDS011;36461;52.018;21.036;2022-07-23T15:07:28;5.12;;;3.70;;
35506;SDS011;36461;52.018;21.036;2022-07-23T15:09:57;4.95;;;3.40;;
35506;SDS011;36461;52.018;21.036;2022-07-23T15:12:25;3.75;;;2.83;;
35506;SDS011;36461;52.018;21.036;2022-07-23T15:14:52;7.87;;;3.50;;
35506;SDS011;36461;52.018;21.036;2022-07-23T15:17:19;3.65;;;3.35;;
35506;SDS011;36461;52.018;21.036;2022-07-23T15:19:46;6.70;;;4.17;;
35506;SDS011;36461;52.018;21.036;2022-07-23T15:22:14;8.00;;;4.00;;
35506;SDS011;36461;52.018;21.036;2022-07-23T15:24:41;5.92;;;4.33;;
35506;SDS011;36461;52.018;21.036;2022-07-23T15:27:08;6.05;;;4.95;;
35506;SDS011;36461;52.018;21.036;2022-07-23T15:29:35;6.15;;;5.53;;